createdAt,value
2019-01-24T00:00:49.945Z,969.255
2019-01-24T00:02:49.805Z,969.292
2019-01-24T00:04:50.080Z,969.310
2019-01-24T00:06:50.344Z,969.322
2019-01-24T00:08:50.187Z,969.317
2019-01-24T00:10:50.006Z,969.315
2019-01-24T00:12:49.822Z,969.331
2019-01-24T00:14:49.719Z,969.365
2019-01-24T00:16:49.827Z,969.382
2019-01-24T00:18:49.680Z,969.409
2019-01-24T00:20:50.618Z,969.414
2019-01-24T00:22:50.395Z,969.406
2019-01-24T00:24:50.352Z,969.413
2019-01-24T00:26:50.482Z,969.415
2019-01-24T00:28:50.337Z,969.414
2019-01-24T00:30:50.168Z,969.433
2019-01-24T00:32:50.045Z,969.431
2019-01-24T00:34:50.233Z,969.465
2019-01-24T00:36:50.439Z,969.499
2019-01-24T00:38:50.283Z,969.505
2019-01-24T00:40:50.102Z,969.514
2019-01-24T00:42:50.013Z,969.538
2019-01-24T00:44:49.844Z,969.571
2019-01-24T00:46:49.917Z,969.592
2019-01-24T00:48:49.924Z,969.615
2019-01-24T00:50:49.736Z,969.652
2019-01-24T00:52:49.611Z,969.669
2019-01-24T00:54:50.469Z,969.684
2019-01-24T00:56:50.476Z,969.689
2019-01-24T00:58:50.356Z,969.705
2019-01-24T01:00:50.203Z,969.722
2019-01-24T01:02:50.041Z,969.761
2019-01-24T01:04:50.240Z,969.802
2019-01-24T01:06:50.178Z,969.860
2019-01-24T01:08:50.048Z,969.894
2019-01-24T01:10:49.902Z,969.918
2019-01-24T01:12:49.814Z,969.937
2019-01-24T01:14:49.779Z,969.991
2019-01-24T01:16:49.788Z,970.039
2019-01-24T01:18:49.702Z,970.040
2019-01-24T01:20:50.544Z,970.054
2019-01-24T01:22:50.556Z,970.057
2019-01-24T01:24:50.415Z,970.081
2019-01-24T01:26:50.555Z,970.081
2019-01-24T01:28:50.400Z,970.103
2019-01-24T01:30:50.299Z,970.115
2019-01-24T01:32:50.124Z,970.163
2019-01-24T01:34:50.339Z,970.165
2019-01-24T01:36:50.402Z,970.194
2019-01-24T01:38:50.287Z,970.196
2019-01-24T01:40:50.267Z,970.211
2019-01-24T01:42:50.174Z,970.214
2019-01-24T01:44:50.028Z,970.232
2019-01-24T01:46:49.952Z,970.260
2019-01-24T01:48:49.791Z,970.290
2019-01-24T01:50:49.680Z,970.300
2019-01-24T01:52:50.500Z,970.305
2019-01-24T01:54:50.355Z,970.322
2019-01-24T01:56:50.345Z,970.302
2019-01-24T01:58:50.217Z,970.328
2019-01-24T02:00:50.023Z,970.335
2019-01-24T02:02:49.905Z,970.355
2019-01-24T02:04:50.064Z,970.364
2019-01-24T02:06:50.150Z,970.399
2019-01-24T02:08:49.916Z,970.416
2019-01-24T02:10:49.907Z,970.425
2019-01-24T02:12:49.873Z,970.428
2019-01-24T02:14:49.766Z,970.428
2019-01-24T02:16:49.995Z,970.445
2019-01-24T02:18:49.853Z,970.459
2019-01-24T02:20:49.773Z,970.470
2019-01-24T02:22:49.742Z,970.486
2019-01-24T02:24:49.675Z,970.476
2019-01-24T02:26:49.686Z,970.486
2019-01-24T02:28:49.748Z,970.473
2019-01-24T02:30:49.796Z,970.488
2019-01-24T02:32:49.832Z,970.496
2019-01-24T02:34:50.182Z,970.525
2019-01-24T02:36:50.306Z,970.528
2019-01-24T02:38:50.142Z,970.555
2019-01-24T02:40:49.993Z,970.569
2019-01-24T02:42:49.825Z,970.570
2019-01-24T02:44:49.738Z,970.577
2019-01-24T02:46:49.765Z,970.591
2019-01-24T02:48:50.576Z,970.629
2019-01-24T02:50:50.438Z,970.657
2019-01-24T02:52:50.283Z,970.681
2019-01-24T02:54:50.192Z,970.691
2019-01-24T02:56:50.231Z,970.726
2019-01-24T02:58:50.077Z,970.750
2019-01-24T03:00:49.939Z,970.770
2019-01-24T03:02:49.870Z,970.779
2019-01-24T03:04:57.374Z,970.782
2019-01-24T03:06:50.343Z,970.796
2019-01-24T03:08:49.911Z,970.825
2019-01-24T03:10:49.811Z,970.834
2019-01-24T03:12:49.855Z,970.824
2019-01-24T03:14:49.737Z,970.827
2019-01-24T03:16:49.877Z,970.825
2019-01-24T03:18:49.736Z,970.801
2019-01-24T03:20:49.647Z,970.825
2019-01-24T03:22:50.461Z,970.831
2019-01-24T03:24:50.353Z,970.817
2019-01-24T03:26:50.367Z,970.829
2019-01-24T03:28:50.236Z,970.849
2019-01-24T03:30:50.150Z,970.852
2019-01-24T03:32:50.105Z,970.867
2019-01-24T03:34:50.297Z,970.867
2019-01-24T03:36:50.362Z,970.935
2019-01-24T03:38:50.210Z,970.938
2019-01-24T03:40:50.138Z,970.969
2019-01-24T03:42:49.990Z,971.001
2019-01-24T03:44:49.868Z,971.054
2019-01-24T03:46:49.927Z,971.076
2019-01-24T03:48:49.787Z,971.098
2019-01-24T03:50:49.597Z,971.098
2019-01-24T03:52:49.668Z,971.118
2019-01-24T03:54:50.476Z,971.110
2019-01-24T03:56:50.718Z,971.084
2019-01-24T03:58:49.617Z,971.098
2019-01-24T04:00:49.609Z,971.127
2019-01-24T04:02:50.504Z,971.156
2019-01-24T04:04:49.717Z,971.170
2019-01-24T04:06:50.003Z,971.209
2019-01-24T04:08:49.879Z,971.236
2019-01-24T04:10:49.892Z,971.246
2019-01-24T04:12:49.796Z,971.289
2019-01-24T04:14:49.749Z,971.300
2019-01-24T04:16:49.892Z,971.300
2019-01-24T04:18:49.844Z,971.321
2019-01-24T04:20:49.700Z,971.324
2019-01-24T04:22:50.624Z,971.346
2019-01-24T04:24:50.437Z,971.355
2019-01-24T04:26:50.576Z,971.383
2019-01-24T04:28:50.505Z,971.395
2019-01-24T04:30:50.365Z,971.429
2019-01-24T04:32:50.263Z,971.447
2019-01-24T04:34:50.477Z,971.454
2019-01-24T04:36:49.769Z,971.454
2019-01-24T04:38:49.626Z,971.443
2019-01-24T04:40:50.473Z,971.448
2019-01-24T04:42:50.355Z,971.466
2019-01-24T04:44:50.185Z,971.485
2019-01-24T04:46:50.075Z,971.479
2019-01-24T04:48:49.872Z,971.484
2019-01-24T04:50:49.654Z,971.509
2019-01-24T04:52:50.557Z,971.527
2019-01-24T04:54:50.367Z,971.549
2019-01-24T04:56:50.482Z,971.560
2019-01-24T04:58:50.273Z,971.585
2019-01-24T05:00:50.150Z,971.591
2019-01-24T05:02:50.068Z,971.588
2019-01-24T05:04:50.157Z,971.603
2019-01-24T05:06:50.214Z,971.624
2019-01-24T05:08:50.054Z,971.643
2019-01-24T05:10:49.931Z,971.651
2019-01-24T05:12:49.826Z,971.691
2019-01-24T05:14:49.621Z,971.711
2019-01-24T05:16:49.707Z,971.720
2019-01-24T05:18:49.661Z,971.735
2019-01-24T05:20:50.583Z,971.740
2019-01-24T05:22:50.382Z,971.761
2019-01-24T05:24:50.270Z,971.772
2019-01-24T05:26:49.850Z,971.807
2019-01-24T05:28:49.772Z,971.815
2019-01-24T05:30:49.646Z,971.842
2019-01-24T05:32:50.475Z,971.842
2019-01-24T05:34:50.524Z,971.882
2019-01-24T05:36:49.620Z,971.894
2019-01-24T05:38:50.528Z,971.909
2019-01-24T05:40:50.360Z,971.956
2019-01-24T05:42:50.332Z,971.967
2019-01-24T05:44:50.206Z,971.989
2019-01-24T05:46:50.348Z,971.993
2019-01-24T05:48:50.132Z,972.046
2019-01-24T05:50:50.095Z,972.081
2019-01-24T05:52:49.947Z,972.108
2019-01-24T05:54:49.835Z,972.146
2019-01-24T05:56:50.018Z,972.146
2019-01-24T05:58:49.846Z,972.204
2019-01-24T06:00:49.635Z,972.224
2019-01-24T06:02:50.533Z,972.255
2019-01-24T06:04:49.753Z,972.291
2019-01-24T06:06:49.884Z,972.309
2019-01-24T06:08:49.744Z,972.349
2019-01-24T06:10:49.627Z,972.359
2019-01-24T06:12:50.401Z,972.379
2019-01-24T06:14:50.322Z,972.394
2019-01-24T06:16:50.458Z,972.398
2019-01-24T06:18:50.286Z,972.418
2019-01-24T06:20:50.216Z,972.451
2019-01-24T06:22:50.109Z,972.472
2019-01-24T06:24:49.939Z,972.468
2019-01-24T06:26:50.071Z,972.479
2019-01-24T06:28:49.812Z,972.489
2019-01-24T06:30:49.807Z,972.503
2019-01-24T06:32:49.768Z,972.524
2019-01-24T06:34:49.926Z,972.522
2019-01-24T06:36:49.722Z,972.524
2019-01-24T06:38:50.551Z,972.532
2019-01-24T06:40:50.380Z,972.552
2019-01-24T06:42:50.275Z,972.587
2019-01-24T06:44:50.104Z,972.609
2019-01-24T06:46:50.106Z,972.635
2019-01-24T06:48:49.983Z,972.674
2019-01-24T06:50:49.841Z,972.718
2019-01-24T06:52:49.692Z,972.733
2019-01-24T06:54:50.455Z,972.755
2019-01-24T06:56:50.602Z,972.760
2019-01-24T06:58:50.529Z,972.792
2019-01-24T07:00:50.371Z,972.791
2019-01-24T07:02:50.198Z,972.850
2019-01-24T07:04:50.411Z,972.891
2019-01-24T07:06:50.471Z,972.923
2019-01-24T07:08:50.320Z,972.962
2019-01-24T07:10:50.213Z,972.972
2019-01-24T07:12:50.032Z,973.009
2019-01-24T07:14:49.845Z,973.027
2019-01-24T07:16:49.925Z,973.050
2019-01-24T07:18:49.823Z,973.078
2019-01-24T07:20:49.754Z,973.094
2019-01-24T07:22:50.579Z,973.108
2019-01-24T07:24:50.435Z,973.156
2019-01-24T07:26:50.462Z,973.196
2019-01-24T07:28:50.379Z,973.224
2019-01-24T07:30:50.143Z,973.237
2019-01-24T07:32:49.922Z,973.240
2019-01-24T07:34:50.238Z,973.288
2019-01-24T07:36:50.322Z,973.311
2019-01-24T07:38:50.114Z,973.311
2019-01-24T07:40:49.964Z,973.312
2019-01-24T07:42:49.839Z,973.316
2019-01-24T07:44:49.741Z,973.346
2019-01-24T07:46:49.870Z,973.373
2019-01-24T07:48:49.742Z,973.417
2019-01-24T07:50:49.677Z,973.447
2019-01-24T07:52:50.556Z,973.483
2019-01-24T07:54:50.364Z,973.516
2019-01-24T07:56:50.434Z,973.523
2019-01-24T07:58:50.308Z,973.552
2019-01-24T08:00:50.175Z,973.568
2019-01-24T08:02:50.065Z,973.576
2019-01-24T08:04:50.224Z,973.590
2019-01-24T08:06:50.327Z,973.632
2019-01-24T08:08:50.182Z,973.632
2019-01-24T08:10:49.984Z,973.659
2019-01-24T08:12:49.885Z,973.664
2019-01-24T08:14:49.728Z,973.671
2019-01-24T08:16:49.810Z,973.671
2019-01-24T08:18:49.660Z,973.758
2019-01-24T08:20:50.483Z,973.767
2019-01-24T08:22:50.355Z,973.763
2019-01-24T08:24:50.437Z,973.730
2019-01-24T08:26:50.362Z,973.709
2019-01-24T08:28:50.197Z,973.706
2019-01-24T08:30:50.039Z,973.702
2019-01-24T08:32:49.844Z,973.706
2019-01-24T08:34:50.208Z,973.725
2019-01-24T08:36:50.233Z,973.743
2019-01-24T08:38:50.026Z,973.762
2019-01-24T08:40:49.820Z,973.791
2019-01-24T08:42:49.636Z,973.790
2019-01-24T08:44:50.493Z,973.802
2019-01-24T08:46:50.484Z,973.792
2019-01-24T08:48:50.313Z,973.760
2019-01-24T08:50:50.090Z,973.740
2019-01-24T08:52:49.888Z,973.758
2019-01-24T08:54:49.718Z,973.792
2019-01-24T08:56:49.768Z,973.790
2019-01-24T08:58:49.773Z,973.831
2019-01-24T09:00:49.765Z,973.854
2019-01-24T09:02:50.548Z,973.857
2019-01-24T09:04:49.652Z,973.871
2019-01-24T09:06:49.646Z,973.883
2019-01-24T09:08:50.449Z,973.897
2019-01-24T09:10:50.269Z,973.895
2019-01-24T09:12:50.119Z,973.914
2019-01-24T09:14:50.147Z,973.951
2019-01-24T09:16:50.424Z,973.968
2019-01-24T09:18:50.208Z,973.986
2019-01-24T09:20:49.987Z,974.014
2019-01-24T09:22:55.778Z,974.020
2019-01-24T09:24:49.637Z,974.056
2019-01-24T09:26:49.662Z,974.092
2019-01-24T09:28:50.571Z,974.074
2019-01-24T09:30:50.500Z,974.075
2019-01-24T09:32:50.609Z,974.085
2019-01-24T09:34:50.179Z,974.094
2019-01-24T09:36:50.293Z,974.119
2019-01-24T09:38:50.282Z,974.118
2019-01-24T09:40:50.312Z,974.159
2019-01-24T09:42:50.085Z,974.207
2019-01-24T09:44:49.847Z,974.235
2019-01-24T09:46:49.921Z,974.239
2019-01-24T09:48:50.567Z,974.263
2019-01-24T09:50:49.697Z,974.324
2019-01-24T09:52:50.512Z,974.359
2019-01-24T09:54:50.368Z,974.370
2019-01-24T09:56:50.366Z,974.377
2019-01-24T09:58:50.227Z,974.391
2019-01-24T10:00:50.135Z,974.387
2019-01-24T10:02:49.930Z,974.438
2019-01-24T10:04:50.220Z,974.431
2019-01-24T10:06:50.874Z,974.450
2019-01-24T10:08:49.660Z,974.470
2019-01-24T10:10:50.459Z,974.478
2019-01-24T10:12:50.283Z,974.467
2019-01-24T10:14:50.075Z,974.445
2019-01-24T10:16:50.171Z,974.404
2019-01-24T10:18:49.939Z,974.396
2019-01-24T10:20:49.746Z,974.375
2019-01-24T10:22:49.703Z,974.390
2019-01-24T10:24:50.523Z,974.392
2019-01-24T10:26:49.605Z,974.389
2019-01-24T10:28:50.401Z,974.391
2019-01-24T10:30:50.261Z,974.401
2019-01-24T10:32:50.130Z,974.399
2019-01-24T10:34:50.186Z,974.407
2019-01-24T10:36:50.219Z,974.414
2019-01-24T10:38:49.997Z,974.415
2019-01-24T10:40:49.861Z,974.406
2019-01-24T10:42:49.687Z,974.433
2019-01-24T10:44:50.519Z,974.432
2019-01-24T10:46:50.570Z,974.458
2019-01-24T10:48:50.405Z,974.467
2019-01-24T10:50:50.226Z,974.479
2019-01-24T10:52:50.076Z,974.492
2019-01-24T10:54:49.936Z,974.471
2019-01-24T10:56:50.086Z,974.468
2019-01-24T10:58:49.867Z,974.465
2019-01-24T11:00:49.769Z,974.461
2019-01-24T11:02:50.629Z,974.475
2019-01-24T11:04:49.857Z,974.495
2019-01-24T11:06:50.380Z,974.501
2019-01-24T11:08:50.166Z,974.526
2019-01-24T11:10:49.941Z,974.524
2019-01-24T11:12:49.756Z,974.506
2019-01-24T11:14:49.741Z,974.488
2019-01-24T11:16:49.731Z,974.490
2019-01-24T11:18:50.580Z,974.492
2019-01-24T11:20:50.378Z,974.486
2019-01-24T11:22:50.199Z,974.503
2019-01-24T11:24:49.962Z,974.504
2019-01-24T11:26:49.971Z,974.504
2019-01-24T11:28:49.788Z,974.485
2019-01-24T11:30:49.679Z,974.495
2019-01-24T11:32:50.431Z,974.503
2019-01-24T11:34:50.523Z,974.496
2019-01-24T11:36:57.579Z,974.490
2019-01-24T11:38:50.343Z,974.492
2019-01-24T11:40:50.140Z,974.516
2019-01-24T11:42:50.020Z,974.553
2019-01-24T11:44:49.903Z,974.569
2019-01-24T11:46:50.043Z,974.575
2019-01-24T11:48:49.819Z,974.566
2019-01-24T11:50:51.362Z,974.549
2019-01-24T11:52:50.199Z,974.534
2019-01-24T11:54:50.039Z,974.524
2019-01-24T11:56:50.085Z,974.531
2019-01-24T11:58:49.882Z,974.554
2019-01-24T12:00:49.747Z,974.563
2019-01-24T12:02:50.679Z,974.552
2019-01-24T12:04:49.898Z,974.576
2019-01-24T12:06:49.957Z,974.586
2019-01-24T12:08:49.743Z,974.606
2019-01-24T12:10:49.625Z,974.594
2019-01-24T12:12:50.414Z,974.595
2019-01-24T12:14:50.288Z,974.567
2019-01-24T12:16:50.319Z,974.557
2019-01-24T12:18:50.096Z,974.554
2019-01-24T12:20:49.874Z,974.548
2019-01-24T12:22:49.699Z,974.539
2019-01-24T12:24:50.518Z,974.534
2019-01-24T12:26:50.579Z,974.534
2019-01-24T12:28:50.415Z,974.532
2019-01-24T12:30:50.233Z,974.549
2019-01-24T12:32:50.068Z,974.572
2019-01-24T12:34:50.189Z,974.581
2019-01-24T12:36:50.175Z,974.569
2019-01-24T12:38:49.965Z,974.576
2019-01-24T12:40:49.828Z,974.583
2019-01-24T12:42:49.629Z,974.606
2019-01-24T12:44:50.468Z,974.616
2019-01-24T12:46:50.522Z,974.616
2019-01-24T12:48:50.350Z,974.585
2019-01-24T12:50:50.147Z,974.566
2019-01-24T12:52:50.001Z,974.560
2019-01-24T12:54:49.825Z,974.535
2019-01-24T12:56:49.930Z,974.542
2019-01-24T12:58:49.765Z,974.538
2019-01-24T13:00:50.614Z,974.556
2019-01-24T13:02:50.366Z,974.569
2019-01-24T13:04:50.492Z,974.587
2019-01-24T13:06:50.493Z,974.600
2019-01-24T13:08:50.333Z,974.600
2019-01-24T13:10:50.185Z,974.602
2019-01-24T13:12:49.998Z,974.598
2019-01-24T13:14:49.850Z,974.623
2019-01-24T13:16:50.118Z,974.634
2019-01-24T13:18:49.925Z,974.644
2019-01-24T13:20:49.732Z,974.648
2019-01-24T13:22:50.608Z,974.656
2019-01-24T13:24:50.396Z,974.669
2019-01-24T13:26:50.405Z,974.692
2019-01-24T13:28:50.203Z,974.688
2019-01-24T13:30:50.168Z,974.703
2019-01-24T13:32:50.128Z,974.709
2019-01-24T13:34:50.320Z,974.710
2019-01-24T13:36:50.319Z,974.741
2019-01-24T13:38:50.149Z,974.759
2019-01-24T13:40:49.972Z,974.791
2019-01-24T13:42:49.890Z,974.820
2019-01-24T13:44:49.711Z,974.826
2019-01-24T13:46:49.849Z,974.821
2019-01-24T13:48:49.755Z,974.821
2019-01-24T13:50:50.601Z,974.828
2019-01-24T13:52:50.369Z,974.837
2019-01-24T13:54:50.209Z,974.837
2019-01-24T13:56:50.224Z,974.873
2019-01-24T13:58:50.023Z,974.890
2019-01-24T14:00:49.843Z,974.896
2019-01-24T14:02:49.799Z,974.912
2019-01-24T14:04:49.917Z,974.912
2019-01-24T14:06:49.936Z,974.933
2019-01-24T14:08:49.721Z,974.945
2019-01-24T14:10:49.624Z,974.997
2019-01-24T14:12:50.531Z,975.004
2019-01-24T14:14:50.332Z,975.029
2019-01-24T14:16:50.333Z,975.053
2019-01-24T14:18:50.151Z,975.062
2019-01-24T14:20:49.927Z,975.094
2019-01-24T14:22:49.798Z,975.118
2019-01-24T14:24:50.593Z,975.172
2019-01-24T14:26:50.561Z,975.181
2019-01-24T14:28:50.466Z,975.220
2019-01-24T14:30:50.250Z,975.220
2019-01-24T14:32:50.066Z,975.238
2019-01-24T14:34:50.148Z,975.275
2019-01-24T14:36:50.230Z,975.272
2019-01-24T14:38:50.007Z,975.304
2019-01-24T14:40:49.807Z,975.322
2019-01-24T14:42:49.699Z,975.322
2019-01-24T14:44:50.440Z,975.357
2019-01-24T14:46:50.462Z,975.365
2019-01-24T14:48:50.243Z,975.415
2019-01-24T14:50:50.034Z,975.437
2019-01-24T14:52:49.954Z,975.456
2019-01-24T14:54:49.895Z,975.464
2019-01-24T14:56:49.912Z,975.462
2019-01-24T14:58:49.746Z,975.481
2019-01-24T15:00:49.609Z,975.487
2019-01-24T15:02:50.463Z,975.484
2019-01-24T15:04:49.687Z,975.482
2019-01-24T15:06:49.619Z,975.488
2019-01-24T15:08:50.399Z,975.493
2019-01-24T15:10:50.210Z,975.517
2019-01-24T15:12:50.030Z,975.520
2019-01-24T15:14:49.832Z,975.556
2019-01-24T15:16:49.781Z,975.573
2019-01-24T15:18:50.567Z,975.612
2019-01-24T15:20:50.444Z,975.641
2019-01-24T15:22:50.286Z,975.697
2019-01-24T15:24:50.097Z,975.712
2019-01-24T15:26:50.179Z,975.731
2019-01-24T15:28:49.982Z,975.755
2019-01-24T15:30:49.838Z,975.765
2019-01-24T15:32:49.611Z,975.771
2019-01-24T15:34:49.913Z,975.771
2019-01-24T15:36:49.853Z,975.771
2019-01-24T15:38:49.761Z,975.786
2019-01-24T15:40:49.621Z,975.799
2019-01-24T15:42:50.501Z,975.815
2019-01-24T15:44:50.316Z,975.823
2019-01-24T15:46:50.394Z,975.838
2019-01-24T15:48:50.187Z,975.866
2019-01-24T15:50:50.093Z,975.884
2019-01-24T15:52:49.864Z,975.910
2019-01-24T15:54:49.613Z,975.944
2019-01-24T15:56:49.667Z,975.965
2019-01-24T15:58:50.463Z,975.964
2019-01-24T16:00:50.351Z,975.997
2019-01-24T16:02:50.158Z,976.005
2019-01-24T16:04:50.374Z,976.020
2019-01-24T16:06:50.341Z,976.024
2019-01-24T16:08:50.257Z,976.024
2019-01-24T16:10:50.022Z,975.995
2019-01-24T16:12:49.887Z,975.990
2019-01-24T16:14:49.733Z,975.999
2019-01-24T16:16:49.746Z,976.012
2019-01-24T16:18:49.674Z,976.024
2019-01-24T16:20:50.500Z,976.024
2019-01-24T16:22:50.376Z,976.046
2019-01-24T16:24:50.252Z,976.070
2019-01-24T16:26:50.319Z,976.084
2019-01-24T16:28:50.147Z,976.130
2019-01-24T16:30:49.943Z,976.181
2019-01-24T16:32:49.897Z,976.230
2019-01-24T16:34:51.870Z,976.256
2019-01-24T16:36:50.012Z,976.280
2019-01-24T16:38:49.857Z,976.314
2019-01-24T16:40:49.679Z,976.314
2019-01-24T16:42:50.513Z,976.321
2019-01-24T16:44:50.342Z,976.315
2019-01-24T16:46:50.300Z,976.332
2019-01-24T16:48:50.102Z,976.375
2019-01-24T16:50:49.854Z,976.412
2019-01-24T16:52:49.821Z,976.434
2019-01-24T16:54:49.611Z,976.442
2019-01-24T16:56:49.720Z,976.443
2019-01-24T16:58:50.554Z,976.470
2019-01-24T17:00:50.300Z,976.508
2019-01-24T17:02:50.083Z,976.522
2019-01-24T17:04:50.157Z,976.552
2019-01-24T17:06:50.152Z,976.542
2019-01-24T17:08:50.005Z,976.584
2019-01-24T17:10:49.781Z,976.628
2019-01-24T17:12:49.624Z,976.642
2019-01-24T17:14:50.482Z,976.663
2019-01-24T17:16:50.463Z,976.656
2019-01-24T17:18:50.452Z,976.648
2019-01-24T17:20:50.231Z,976.629
2019-01-24T17:22:50.118Z,976.665
2019-01-24T17:24:49.964Z,976.707
2019-01-24T17:26:50.142Z,976.753
2019-01-24T17:28:50.273Z,976.767
2019-01-24T17:30:50.137Z,976.778
2019-01-24T17:32:49.984Z,976.827
2019-01-24T17:34:50.326Z,976.871
2019-01-24T17:36:50.372Z,976.877
2019-01-24T17:38:50.251Z,976.882
2019-01-24T17:40:50.138Z,976.912
2019-01-24T17:42:49.978Z,976.925
2019-01-24T17:44:49.845Z,976.918
2019-01-24T17:46:49.896Z,976.903
2019-01-24T17:48:49.727Z,976.926
2019-01-24T17:50:50.467Z,976.978
2019-01-24T17:52:50.374Z,977.037
2019-01-24T17:54:50.247Z,977.043
2019-01-24T17:56:50.296Z,977.047
2019-01-24T17:58:50.073Z,977.052
2019-01-24T18:00:49.904Z,977.083
2019-01-24T18:02:49.755Z,977.105
2019-01-24T18:04:50.091Z,977.154
2019-01-24T18:06:50.042Z,977.165
2019-01-24T18:08:49.848Z,977.172
2019-01-24T18:10:49.744Z,977.192
2019-01-24T18:12:50.633Z,977.207
2019-01-24T18:14:50.448Z,977.225
2019-01-24T18:16:50.580Z,977.252
2019-01-24T18:18:50.448Z,977.275
2019-01-24T18:20:50.289Z,977.293
2019-01-24T18:22:50.237Z,977.293
2019-01-24T18:24:50.133Z,977.341
2019-01-24T18:26:50.082Z,977.359
2019-01-24T18:28:50.031Z,977.393
2019-01-24T18:30:49.876Z,977.448
2019-01-24T18:32:49.734Z,977.476
2019-01-24T18:34:50.208Z,977.492
2019-01-24T18:36:50.253Z,977.528
2019-01-24T18:38:50.076Z,977.563
2019-01-24T18:40:49.909Z,977.563
2019-01-24T18:42:49.778Z,977.563
2019-01-24T18:44:49.681Z,977.562
2019-01-24T18:46:49.739Z,977.591
2019-01-24T18:48:49.670Z,977.627
2019-01-24T18:50:50.560Z,977.673
2019-01-24T18:52:50.497Z,977.673
2019-01-24T18:54:50.267Z,977.692
2019-01-24T18:56:50.280Z,977.706
2019-01-24T18:58:50.201Z,977.706
2019-01-24T19:00:50.027Z,977.717
2019-01-24T19:02:49.866Z,977.754
2019-01-24T19:04:50.148Z,977.789
2019-01-24T19:06:50.138Z,977.783
2019-01-24T19:08:49.877Z,977.759
2019-01-24T19:10:49.774Z,977.748
2019-01-24T19:12:49.774Z,977.774
2019-01-24T19:14:49.727Z,977.793
2019-01-24T19:16:49.881Z,977.790
2019-01-24T19:18:49.785Z,977.795
2019-01-24T19:20:52.212Z,977.795
2019-01-24T19:22:50.105Z,977.801
2019-01-24T19:24:49.899Z,977.812
2019-01-24T19:26:50.080Z,977.816
2019-01-24T19:28:49.924Z,977.864
2019-01-24T19:30:49.899Z,977.884
2019-01-24T19:32:49.791Z,977.903
2019-01-24T19:34:49.892Z,977.925
2019-01-24T19:36:49.944Z,977.924
2019-01-24T19:38:53.520Z,977.924
2019-01-24T19:40:50.457Z,977.915
2019-01-24T19:42:50.315Z,977.913
2019-01-24T19:44:50.157Z,977.897
2019-01-24T19:46:50.148Z,977.916
2019-01-24T19:48:49.995Z,977.919
2019-01-24T19:50:49.788Z,977.937
2019-01-24T19:52:49.634Z,977.949
2019-01-24T19:54:50.413Z,977.987
2019-01-24T19:56:50.526Z,978.000
2019-01-24T19:58:50.353Z,978.023
2019-01-24T20:00:50.292Z,978.040
2019-01-24T20:02:50.104Z,978.093
2019-01-24T20:04:50.262Z,978.114
2019-01-24T20:06:50.358Z,978.121
2019-01-24T20:08:50.177Z,978.147
2019-01-24T20:10:49.977Z,978.165
2019-01-24T20:12:49.898Z,978.199
2019-01-24T20:14:49.737Z,978.226
2019-01-24T20:16:49.859Z,978.245
2019-01-24T20:18:49.702Z,978.245
2019-01-24T20:20:49.725Z,978.245
2019-01-24T20:22:50.519Z,978.248
2019-01-24T20:24:50.357Z,978.248
2019-01-24T20:26:50.420Z,978.288
2019-01-24T20:28:50.315Z,978.301
2019-01-24T20:30:50.178Z,978.332
2019-01-24T20:32:49.983Z,978.388
2019-01-24T20:34:50.410Z,978.410
2019-01-24T20:36:50.459Z,978.398
2019-01-24T20:38:50.320Z,978.405
2019-01-24T20:40:50.207Z,978.410
2019-01-24T20:42:50.031Z,978.429
2019-01-24T20:44:49.944Z,978.429
2019-01-24T20:46:50.074Z,978.464
2019-01-24T20:48:49.833Z,978.466
2019-01-24T20:50:49.717Z,978.455
2019-01-24T20:52:50.557Z,978.455
2019-01-24T20:54:50.470Z,978.497
2019-01-24T20:56:50.426Z,978.497
2019-01-24T20:58:50.271Z,978.550
2019-01-24T21:00:50.144Z,978.566
2019-01-24T21:02:50.003Z,978.587
2019-01-24T21:04:50.133Z,978.590
2019-01-24T21:06:50.167Z,978.606
2019-01-24T21:08:50.006Z,978.612
2019-01-24T21:10:49.858Z,978.614
2019-01-24T21:12:49.655Z,978.629
2019-01-24T21:14:49.626Z,978.629
2019-01-24T21:16:49.649Z,978.647
2019-01-24T21:18:50.495Z,978.664
2019-01-24T21:20:50.279Z,978.676
2019-01-24T21:22:50.172Z,978.698
2019-01-24T21:24:49.991Z,978.721
2019-01-24T21:26:50.040Z,978.749
2019-01-24T21:28:49.886Z,978.749
2019-01-24T21:30:49.744Z,978.747
2019-01-24T21:32:49.761Z,978.767
2019-01-24T21:34:49.861Z,978.781
2019-01-24T21:36:49.860Z,978.773
2019-01-24T21:38:49.759Z,978.782
2019-01-24T21:40:49.675Z,978.796
2019-01-24T21:42:49.686Z,978.799
2019-01-24T21:44:50.607Z,978.825
2019-01-24T21:46:50.587Z,978.833
2019-01-24T21:48:50.464Z,978.833
2019-01-24T21:50:50.271Z,978.835
2019-01-24T21:52:50.111Z,978.859
2019-01-24T21:54:49.918Z,978.850
2019-01-24T21:56:50.046Z,978.848
2019-01-24T21:58:49.894Z,978.852
2019-01-24T22:00:49.786Z,978.884
2019-01-24T22:02:50.603Z,978.923
2019-01-24T22:04:49.941Z,978.941
2019-01-24T22:06:50.143Z,978.994
2019-01-24T22:08:49.928Z,979.002
2019-01-24T22:10:49.809Z,979.000
2019-01-24T22:12:50.597Z,978.997
2019-01-24T22:14:50.470Z,978.991
2019-01-24T22:16:50.532Z,978.992
2019-01-24T22:18:50.345Z,978.995
2019-01-24T22:20:56.028Z,978.996
2019-01-24T22:22:49.947Z,979.010
2019-01-24T22:24:49.877Z,979.019
2019-01-24T22:26:49.821Z,979.054
2019-01-24T22:28:49.843Z,979.055
2019-01-24T22:30:49.653Z,979.053
2019-01-24T22:32:50.541Z,979.067
2019-01-24T22:34:49.886Z,979.080
2019-01-24T22:36:49.995Z,979.076
2019-01-24T22:38:49.824Z,979.065
2019-01-24T22:40:49.723Z,979.081
2019-01-24T22:42:50.583Z,979.084
2019-01-24T22:44:50.563Z,979.104
2019-01-24T22:46:49.640Z,979.112
2019-01-24T22:48:50.468Z,979.099
2019-01-24T22:50:50.347Z,979.095
2019-01-24T22:52:50.207Z,979.106
2019-01-24T22:54:50.040Z,979.100
2019-01-24T22:56:50.062Z,979.086
2019-01-24T22:58:49.884Z,979.073
2019-01-24T23:00:49.849Z,979.074
2019-01-24T23:02:50.038Z,979.071
2019-01-24T23:04:50.205Z,979.086
2019-01-24T23:06:50.349Z,979.094
2019-01-24T23:08:50.202Z,979.102
2019-01-24T23:10:50.075Z,979.102
2019-01-24T23:12:49.897Z,979.089
2019-01-24T23:14:49.730Z,979.086
2019-01-24T23:16:49.908Z,979.043
2019-01-24T23:18:49.771Z,979.031
2019-01-24T23:20:50.591Z,979.026
2019-01-24T23:22:50.495Z,979.028
2019-01-24T23:24:50.332Z,979.049
2019-01-24T23:26:50.401Z,979.019
2019-01-24T23:28:50.256Z,979.019
2019-01-24T23:30:50.070Z,979.017
2019-01-24T23:32:49.949Z,979.017
2019-01-24T23:34:50.256Z,979.019
2019-01-24T23:36:50.361Z,979.028
2019-01-24T23:38:50.168Z,979.031
2019-01-24T23:40:49.974Z,979.047
2019-01-24T23:42:49.891Z,979.036
2019-01-24T23:44:49.764Z,979.035
2019-01-24T23:46:49.804Z,979.028
2019-01-24T23:48:49.665Z,979.028
2019-01-24T23:50:50.501Z,979.011
2019-01-24T23:52:50.279Z,978.994
2019-01-24T23:54:50.217Z,979.013
2019-01-24T23:56:50.221Z,979.032
2019-01-24T23:58:50.044Z,979.065
